Time;durP1;ratioP1;P1;durP2;ratioP2;P2;SDS_P1;SDS_P2;PMS_P1;PMS_P2;Temp;Humidity;BMP_temperature;BMP_pressure;BME280_temperature;BME280_humidity;BME280_pressure;Samples;Min_cycle;Max_cycle;Signal;HPM_P1;HPM_P2
2021/07/03 00:02:19;;;;;;;8.37;7.07;;;17.20;99.90;;;;;;5026240;28;20254;-63
2021/07/03 00:04:48;;;;;;;10.97;7.53;;;17.10;99.90;;;;;;5027030;28;20593;-62
2021/07/03 00:07:18;;;;;;;9.60;7.30;;;17.10;99.90;;;;;;5027390;28;20684;-61
2021/07/03 00:09:49;;;;;;;10.93;8.07;;;17.10;99.90;;;;;;5028656;28;20283;-61
2021/07/03 00:12:18;;;;;;;10.83;7.30;;;17.10;99.90;;;;;;5036835;28;20324;-62
2021/07/03 00:14:48;;;;;;;8.60;7.37;;;17.10;99.90;;;;;;5028395;28;20243;-61
2021/07/03 00:17:18;;;;;;;8.63;7.57;;;17.00;99.90;;;;;;5028442;28;20233;-61
2021/07/03 00:19:47;;;;;;;10.13;7.80;;;17.00;99.90;;;;;;5023548;28;20270;-61
2021/07/03 00:22:17;;;;;;;8.33;7.53;;;17.00;99.90;;;;;;5028019;28;20237;-62
2021/07/03 00:24:46;;;;;;;8.57;7.37;;;17.00;99.90;;;;;;5028422;28;20324;-61
2021/07/03 00:27:17;;;;;;;10.10;8.23;;;16.90;99.90;;;;;;5027904;28;20237;-61
2021/07/03 00:29:47;;;;;;;11.17;7.57;;;16.90;99.90;;;;;;5027840;28;20615;-62
2021/07/03 00:32:16;;;;;;;8.93;7.90;;;16.80;99.90;;;;;;5027655;28;20233;-61
2021/07/03 00:34:46;;;;;;;10.40;8.60;;;16.80;99.90;;;;;;5028228;28;20330;-61
2021/07/03 00:37:15;;;;;;;9.60;8.17;;;16.80;99.90;;;;;;5047733;28;20608;-62
2021/07/03 00:39:45;;;;;;;9.17;7.77;;;16.70;99.90;;;;;;5041860;28;20232;-61
2021/07/03 00:42:16;;;;;;;9.33;8.20;;;16.70;99.90;;;;;;5027116;28;20579;-61
2021/07/03 00:44:45;;;;;;;9.67;7.90;;;16.70;99.90;;;;;;5028267;28;20238;-61
2021/07/03 00:47:15;;;;;;;9.93;7.50;;;16.70;99.90;;;;;;5027336;28;20907;-61
2021/07/03 00:49:46;;;;;;;11.00;7.53;;;16.60;99.90;;;;;;5042212;28;20265;-62
2021/07/03 00:52:16;;;;;;;9.97;8.00;;;16.60;99.90;;;;;;5041724;28;20299;-61
2021/07/03 00:54:50;;;;;;;10.10;8.50;;;16.50;99.90;;;;;;5042706;28;20276;-62
2021/07/03 00:57:25;;;;;;;14.40;9.73;;;16.50;99.90;;;;;;5042545;28;20300;-62
2021/07/03 00:59:54;;;;;;;10.80;8.43;;;16.50;99.90;;;;;;5042300;28;20242;-63
2021/07/03 01:02:27;;;;;;;10.93;9.80;;;16.50;99.90;;;;;;5062104;28;20235;-62
2021/07/03 01:04:58;;;;;;;10.87;9.23;;;16.50;99.90;;;;;;5061411;28;20297;-62
2021/07/03 01:07:33;;;;;;;11.33;10.00;;;16.50;99.90;;;;;;5034994;28;20711;-62
2021/07/03 01:10:04;;;;;;;9.17;8.27;;;16.40;99.90;;;;;;5041874;28;20256;-61
2021/07/03 01:12:37;;;;;;;11.30;10.17;;;16.40;99.90;;;;;;5041614;28;20235;-61
2021/07/03 01:15:08;;;;;;;11.60;9.97;;;16.40;99.90;;;;;;5041705;28;20766;-61
2021/07/03 01:17:38;;;;;;;11.77;9.23;;;16.30;99.90;;;;;;5026870;28;21004;-60
2021/07/03 01:20:09;;;;;;;12.33;10.20;;;16.30;99.90;;;;;;5032807;28;20290;-62
2021/07/03 01:22:41;;;;;;;11.27;9.37;;;16.30;99.90;;;;;;5041729;28;20629;-61
2021/07/03 01:25:12;;;;;;;11.30;10.20;;;16.30;99.90;;;;;;5026843;28;20311;-63
2021/07/03 01:27:43;;;;;;;10.87;9.40;;;16.20;99.90;;;;;;5026717;28;20237;-62
2021/07/03 01:30:14;;;;;;;13.07;9.93;;;16.20;99.90;;;;;;5041571;28;21707;-62
2021/07/03 01:32:44;;;;;;;10.80;9.70;;;16.20;99.90;;;;;;5026504;28;20245;-62
2021/07/03 01:35:13;;;;;;;10.73;9.63;;;16.10;99.90;;;;;;5042106;28;20248;-61
2021/07/03 01:37:44;;;;;;;10.93;9.83;;;16.10;99.90;;;;;;5041753;28;20267;-62
2021/07/03 01:40:15;;;;;;;11.13;10.07;;;16.10;99.90;;;;;;5041260;28;20240;-62
2021/07/03 01:42:45;;;;;;;11.73;10.53;;;16.10;99.90;;;;;;5041604;28;20240;-62
2021/07/03 01:45:16;;;;;;;11.73;10.50;;;16.10;99.90;;;;;;5026897;28;20252;-63
2021/07/03 01:47:48;;;;;;;11.17;10.03;;;16.00;99.90;;;;;;5026717;28;20241;-61
2021/07/03 01:50:18;;;;;;;13.03;10.73;;;16.00;99.90;;;;;;5026652;28;20319;-62
2021/07/03 01:52:53;;;;;;;10.80;9.70;;;16.00;99.90;;;;;;5026477;28;20236;-61
2021/07/03 01:55:26;;;;;;;11.70;10.50;;;15.90;99.90;;;;;;5046255;28;20234;-62
2021/07/03 01:57:56;;;;;;;11.10;9.97;;;15.90;99.90;;;;;;5062390;28;20247;-61
2021/07/03 02:00:26;;;;;;;10.83;9.83;;;15.90;99.90;;;;;;5056406;28;20601;-63
2021/07/03 02:03:09;;;;;;;10.70;9.60;;;15.90;99.90;;;;;;5026582;28;20323;-62
2021/07/03 02:05:46;;;;;;;10.73;9.73;;;15.80;99.90;;;;;;5044207;28;20708;-61
2021/07/03 02:08:21;;;;;;;11.23;9.93;;;15.80;99.90;;;;;;5046143;28;20236;-61
2021/07/03 02:11:03;;;;;;;10.97;9.87;;;15.70;99.90;;;;;;5044763;28;20232;-63
2021/07/03 02:13:33;;;;;;;10.70;9.70;;;15.70;99.90;;;;;;5045604;28;20686;-62
2021/07/03 02:16:02;;;;;;;11.30;10.07;;;15.60;99.90;;;;;;5045922;28;20322;-62
2021/07/03 02:18:34;;;;;;;10.97;9.93;;;15.70;99.90;;;;;;5029147;28;20243;-62
2021/07/03 02:21:09;;;;;;;12.47;10.10;;;15.60;99.90;;;;;;5045089;28;20584;-62
2021/07/03 02:23:39;;;;;;;11.70;9.83;;;15.60;99.90;;;;;;5045887;28;20696;-61
2021/07/03 02:26:08;;;;;;;11.63;10.00;;;15.60;99.90;;;;;;5045320;28;20233;-61
2021/07/03 02:28:39;;;;;;;10.70;9.70;;;15.60;99.90;;;;;;5045758;28;20240;-60
2021/07/03 02:31:22;;;;;;;11.57;10.37;;;15.50;99.90;;;;;;5044800;28;20247;-61
2021/07/03 02:33:58;;;;;;;11.27;9.87;;;15.50;99.90;;;;;;5028758;28;20228;-63
2021/07/03 02:36:26;;;;;;;10.83;9.83;;;15.50;99.90;;;;;;5045144;28;20240;-62
2021/07/03 02:38:56;;;;;;;10.20;9.20;;;15.40;99.90;;;;;;5045104;28;20244;-61
2021/07/03 02:41:34;;;;;;;10.20;8.93;;;15.40;99.90;;;;;;5044374;28;20224;-61
2021/07/03 02:44:02;;;;;;;10.43;9.33;;;15.40;99.90;;;;;;5030105;28;20247;-61
2021/07/03 02:46:32;;;;;;;10.63;9.60;;;15.30;99.90;;;;;;5030019;28;20228;-63
2021/07/03 02:49:02;;;;;;;11.30;10.20;;;15.30;99.90;;;;;;5044897;28;20240;-61
2021/07/03 02:51:31;;;;;;;10.10;9.20;;;15.30;99.90;;;;;;5058371;28;20239;-61
2021/07/03 02:54:02;;;;;;;10.87;9.77;;;15.30;99.90;;;;;;5065303;28;20232;-61
2021/07/03 02:56:31;;;;;;;10.20;9.07;;;15.30;99.90;;;;;;5051175;28;20347;-61
2021/07/03 02:59:01;;;;;;;10.33;9.40;;;15.30;99.90;;;;;;5045065;28;20228;-61
2021/07/03 03:01:29;;;;;;;11.23;10.13;;;15.20;99.90;;;;;;5043814;28;20231;-62
2021/07/03 03:03:57;;;;;;;11.67;10.00;;;15.20;99.90;;;;;;5029974;28;20233;-61
2021/07/03 03:06:27;;;;;;;11.20;10.03;;;15.20;99.90;;;;;;5044824;28;20298;-62
2021/07/03 03:08:59;;;;;;;11.17;9.90;;;15.20;99.90;;;;;;5028206;28;20267;-61
2021/07/03 03:11:31;;;;;;;10.10;9.20;;;15.20;99.90;;;;;;5028782;28;20267;-61
2021/07/03 03:13:59;;;;;;;10.97;9.87;;;15.20;99.90;;;;;;5028046;28;20596;-61
2021/07/03 03:16:29;;;;;;;11.10;9.77;;;15.20;99.90;;;;;;5028354;28;20645;-61
2021/07/03 03:19:02;;;;;;;10.90;9.83;;;15.20;99.90;;;;;;5044712;28;20244;-61
2021/07/03 03:21:31;;;;;;;13.40;10.97;;;15.20;99.90;;;;;;5037872;28;20232;-61
2021/07/03 03:24:00;;;;;;;10.93;9.97;;;15.10;99.90;;;;;;5044770;28;20237;-61
2021/07/03 03:26:34;;;;;;;10.30;9.30;;;15.20;99.90;;;;;;5043935;28;20569;-61
2021/07/03 03:29:04;;;;;;;10.77;9.87;;;15.20;99.90;;;;;;5044302;28;20236;-62
2021/07/03 03:31:32;;;;;;;11.50;10.30;;;15.10;99.90;;;;;;5022640;28;20224;-61
2021/07/03 03:34:04;;;;;;;11.70;10.40;;;15.20;99.90;;;;;;5044443;28;20240;-61
2021/07/03 03:36:32;;;;;;;11.37;10.37;;;15.20;99.90;;;;;;5028862;28;20228;-61
2021/07/03 03:39:02;;;;;;;10.63;9.63;;;15.20;99.90;;;;;;5043663;28;20237;-60
2021/07/03 03:41:34;;;;;;;11.10;10.10;;;15.20;99.90;;;;;;5043399;28;20324;-61
2021/07/03 03:44:08;;;;;;;10.70;9.70;;;15.20;99.90;;;;;;5027123;28;20240;-61
2021/07/03 03:46:36;;;;;;;10.70;9.60;;;15.20;99.90;;;;;;5043418;28;20224;-62
2021/07/03 03:49:04;;;;;;;10.07;9.17;;;15.30;99.90;;;;;;5028579;28;20240;-62
2021/07/03 03:51:33;;;;;;;10.20;9.17;;;15.30;99.90;;;;;;5042871;28;20235;-61
2021/07/03 03:54:01;;;;;;;10.43;9.43;;;15.40;99.90;;;;;;5043876;28;20589;-61
2021/07/03 03:56:30;;;;;;;10.40;9.50;;;15.40;99.90;;;;;;5043421;28;20233;-62
2021/07/03 03:59:01;;;;;;;10.27;9.17;;;15.50;99.90;;;;;;5043376;28;20708;-61
2021/07/03 04:01:32;;;;;;;9.63;8.63;;;15.60;99.90;;;;;;5056835;28;20755;-62
2021/07/03 04:04:02;;;;;;;10.97;8.90;;;15.50;99.90;;;;;;5063519;28;20243;-63
2021/07/03 04:06:30;;;;;;;9.67;8.83;;;15.60;99.90;;;;;;5049507;28;20307;-61
2021/07/03 04:08:59;;;;;;;9.47;8.67;;;15.60;99.90;;;;;;5028184;28;20717;-61
2021/07/03 04:11:30;;;;;;;9.40;8.60;;;15.70;99.90;;;;;;5056626;28;20289;-62
2021/07/03 04:13:58;;;;;;;9.63;8.63;;;15.70;99.90;;;;;;5047513;28;20773;-61
2021/07/03 04:16:28;;;;;;;8.63;7.83;;;15.80;99.90;;;;;;5027670;28;20323;-62
2021/07/03 04:18:56;;;;;;;9.63;7.80;;;15.80;99.90;;;;;;5028249;28;20279;-62
2021/07/03 04:21:24;;;;;;;9.80;8.93;;;15.90;99.90;;;;;;5027486;28;20240;-63
2021/07/03 04:23:52;;;;;;;10.07;9.17;;;16.00;99.90;;;;;;5028528;28;20247;-62
2021/07/03 04:26:20;;;;;;;8.97;8.07;;;16.00;99.90;;;;;;5039943;28;20645;-62
2021/07/03 04:28:49;;;;;;;10.77;8.87;;;16.00;99.90;;;;;;5047697;28;20634;-62
2021/07/03 04:31:17;;;;;;;10.43;9.43;;;15.90;99.90;;;;;;5035736;28;20315;-61
2021/07/03 04:33:46;;;;;;;10.60;9.67;;;15.90;99.90;;;;;;5027709;28;20237;-61
2021/07/03 04:36:14;;;;;;;9.73;8.73;;;15.80;99.90;;;;;;5027884;28;20616;-62
2021/07/03 04:38:43;;;;;;;9.87;8.93;;;15.80;99.90;;;;;;5026541;28;20241;-63
2021/07/03 04:41:11;;;;;;;11.00;9.87;;;15.80;99.90;;;;;;5027064;28;20246;-63
2021/07/03 04:43:39;;;;;;;11.17;10.07;;;15.80;99.90;;;;;;5027420;28;20688;-61
2021/07/03 04:46:07;;;;;;;11.87;10.67;;;15.80;99.90;;;;;;5027294;28;20228;-62
2021/07/03 04:48:41;;;;;;;12.57;11.30;;;15.80;99.90;;;;;;5042635;28;20278;-61
2021/07/03 04:51:10;;;;;;;11.23;10.03;;;15.80;99.90;;;;;;5027129;28;20236;-63
2021/07/03 04:53:39;;;;;;;11.47;10.27;;;15.90;99.90;;;;;;5027660;28;20240;-61
2021/07/03 04:56:08;;;;;;;12.13;11.03;;;16.00;99.90;;;;;;5027129;28;20706;-62
2021/07/03 04:58:36;;;;;;;12.27;10.90;;;16.10;99.90;;;;;;5027342;28;20250;-61
2021/07/03 05:01:04;;;;;;;12.93;11.60;;;16.20;99.90;;;;;;5036941;28;20298;-61
2021/07/03 05:03:32;;;;;;;12.90;11.50;;;16.30;99.90;;;;;;5047212;28;20231;-61
2021/07/03 05:06:00;;;;;;;12.40;11.10;;;16.40;99.90;;;;;;5037376;28;20253;-62
2021/07/03 05:08:30;;;;;;;13.33;12.03;;;16.50;99.90;;;;;;5027141;28;20233;-62
2021/07/03 05:10:58;;;;;;;13.80;12.37;;;16.60;99.90;;;;;;5026967;28;20763;-61
2021/07/03 05:13:26;;;;;;;13.83;12.40;;;16.60;99.90;;;;;;5027500;28;20237;-62
2021/07/03 05:15:54;;;;;;;14.60;13.10;;;16.60;99.90;;;;;;5027630;28;20275;-62
2021/07/03 05:18:23;;;;;;;14.07;12.47;;;16.70;99.90;;;;;;5027612;28;20244;-62
2021/07/03 05:20:51;;;;;;;15.10;12.13;;;16.80;99.90;;;;;;5032153;28;20236;-62
2021/07/03 05:23:19;;;;;;;13.27;11.90;;;16.90;99.90;;;;;;5026304;28;20290;-62
2021/07/03 05:25:52;;;;;;;12.50;11.30;;;17.00;99.90;;;;;;5026268;28;20232;-61
2021/07/03 05:28:20;;;;;;;15.63;13.53;;;17.10;99.90;;;;;;5026633;28;20707;-62
2021/07/03 05:30:49;;;;;;;13.93;12.47;;;17.10;99.90;;;;;;5024138;28;20319;-62
2021/07/03 05:33:18;;;;;;;17.43;14.60;;;17.20;99.90;;;;;;5023827;28;20272;-64
2021/07/03 05:35:46;;;;;;;13.87;12.57;;;17.20;99.90;;;;;;5023617;28;20229;-62
2021/07/03 05:38:14;;;;;;;13.80;12.40;;;17.10;99.90;;;;;;5024087;28;20240;-62
2021/07/03 05:40:43;;;;;;;12.83;11.50;;;17.20;99.90;;;;;;5027518;28;20236;-63
2021/07/03 05:43:12;;;;;;;12.93;11.63;;;17.40;99.90;;;;;;5028195;28;20634;-62
2021/07/03 05:45:40;;;;;;;14.63;13.20;;;17.70;99.90;;;;;;5035044;28;20232;-63
2021/07/03 05:48:09;;;;;;;13.90;12.43;;;18.10;99.90;;;;;;5043606;28;20772;-62
2021/07/03 05:50:37;;;;;;;13.87;12.57;;;18.30;99.90;;;;;;5027615;28;20760;-62
2021/07/03 05:53:05;;;;;;;13.50;12.20;;;18.60;99.90;;;;;;5028246;28;20608;-62
2021/07/03 05:55:34;;;;;;;13.73;12.33;;;18.90;99.90;;;;;;5033936;28;20237;-62
2021/07/03 05:58:02;;;;;;;11.80;10.63;;;19.20;99.90;;;;;;5048220;28;20276;-62
2021/07/03 06:00:31;;;;;;;10.77;9.67;;;19.40;99.90;;;;;;5040990;28;20276;-63
2021/07/03 06:02:59;;;;;;;12.37;10.20;;;19.70;99.90;;;;;;5027705;28;20697;-61
2021/07/03 06:05:28;;;;;;;14.83;11.30;;;19.80;99.90;;;;;;5027905;28;20268;-62
2021/07/03 06:07:56;;;;;;;12.80;11.27;;;19.70;99.90;;;;;;5043556;28;20249;-61
2021/07/03 06:10:25;;;;;;;12.03;10.73;;;19.60;99.90;;;;;;5028883;28;20258;-64
2021/07/03 06:12:53;;;;;;;12.47;10.67;;;19.70;99.90;;;;;;5029421;28;20249;-62
2021/07/03 06:15:21;;;;;;;10.87;9.87;;;19.80;99.90;;;;;;5029089;28;20246;-63
2021/07/03 06:17:50;;;;;;;12.03;10.83;;;20.00;99.90;;;;;;5025218;28;20777;-64
2021/07/03 06:20:19;;;;;;;10.00;9.00;;;20.30;99.90;;;;;;5028896;28;20696;-63
2021/07/03 06:22:48;;;;;;;11.43;8.83;;;20.60;99.90;;;;;;5028302;28;20685;-61
2021/07/03 06:25:16;;;;;;;8.70;7.50;;;20.90;99.90;;;;;;5028424;28;20300;-62
2021/07/03 06:27:44;;;;;;;8.50;6.93;;;21.00;99.90;;;;;;5028451;28;20247;-63
2021/07/03 06:30:13;;;;;;;8.57;7.10;;;20.90;99.90;;;;;;5028627;28;20796;-62
2021/07/03 06:32:41;;;;;;;8.30;5.80;;;20.80;99.90;;;;;;5028204;28;20249;-61
2021/07/03 06:35:12;;;;;;;7.90;5.77;;;20.80;99.90;;;;;;5028287;28;20243;-62
2021/07/03 06:37:40;;;;;;;8.00;5.83;;;20.90;99.90;;;;;;5028266;28;20236;-62
2021/07/03 06:40:09;;;;;;;8.77;4.93;;;20.80;99.90;;;;;;5042729;28;20243;-63
2021/07/03 06:42:37;;;;;;;8.53;6.20;;;21.20;99.90;;;;;;5027491;28;20325;-62
2021/07/03 06:45:07;;;;;;;7.03;5.60;;;21.30;99.90;;;;;;5028603;28;20305;-63
2021/07/03 06:47:35;;;;;;;9.23;6.33;;;20.90;99.90;;;;;;5027799;28;20232;-62
2021/07/03 06:50:05;;;;;;;6.77;6.03;;;20.50;99.90;;;;;;5027370;28;20232;-61
2021/07/03 06:52:34;;;;;;;7.30;6.33;;;20.40;99.90;;;;;;5027242;28;20319;-63
2021/07/03 06:55:05;;;;;;;7.37;6.07;;;20.30;99.90;;;;;;5028102;28;20239;-61
2021/07/03 06:57:36;;;;;;;6.37;5.73;;;20.40;99.90;;;;;;5027754;28;20241;-62
2021/07/03 07:00:06;;;;;;;7.00;5.63;;;20.80;99.90;;;;;;5027899;28;20322;-62
2021/07/03 07:02:34;;;;;;;7.13;5.80;;;21.30;99.90;;;;;;5027627;28;20327;-62
2021/07/03 07:05:04;;;;;;;6.20;5.30;;;21.60;99.90;;;;;;5029648;28;20696;-63
2021/07/03 07:07:32;;;;;;;7.50;5.47;;;21.80;99.90;;;;;;5063187;28;20238;-61
2021/07/03 07:10:01;;;;;;;6.80;5.50;;;21.90;99.90;;;;;;5047528;28;20273;-61
2021/07/03 07:12:29;;;;;;;8.23;6.00;;;22.00;99.90;;;;;;5021233;28;20243;-62
2021/07/03 07:14:58;;;;;;;6.27;5.50;;;22.00;99.90;;;;;;5027801;28;20236;-62
2021/07/03 07:17:26;;;;;;;8.37;6.20;;;21.60;99.90;;;;;;5021013;28;20243;-62
2021/07/03 07:19:54;;;;;;;9.00;5.93;;;21.20;99.90;;;;;;5028428;28;20248;-63
2021/07/03 07:22:23;;;;;;;6.60;5.90;;;21.10;99.90;;;;;;5029261;28;20232;-62
2021/07/03 07:24:51;;;;;;;6.90;6.20;;;21.00;99.90;;;;;;5029502;28;20301;-62
2021/07/03 07:27:20;;;;;;;6.60;5.87;;;20.90;99.90;;;;;;5029283;28;20235;-61
2021/07/03 07:29:49;;;;;;;6.13;5.53;;;21.00;99.90;;;;;;5042675;28;20232;-62
2021/07/03 07:32:17;;;;;;;6.70;5.93;;;21.20;99.90;;;;;;5027596;28;20248;-63
2021/07/03 07:34:45;;;;;;;5.97;4.97;;;21.20;99.90;;;;;;5029192;28;20383;-62
2021/07/03 07:37:13;;;;;;;5.37;4.87;;;21.30;99.90;;;;;;5028837;28;20227;-63
2021/07/03 07:39:41;;;;;;;5.57;4.60;;;21.40;99.90;;;;;;5027734;28;20323;-63
2021/07/03 07:42:10;;;;;;;5.63;5.03;;;21.50;99.90;;;;;;5027403;28;20302;-63
2021/07/03 07:44:39;;;;;;;5.00;4.30;;;21.40;99.90;;;;;;5027981;28;20243;-64
2021/07/03 07:47:08;;;;;;;5.27;3.87;;;21.40;99.90;;;;;;5027929;28;20305;-65
2021/07/03 07:49:36;;;;;;;6.83;4.20;;;21.70;99.90;;;;;;5028007;28;20754;-62
2021/07/03 07:52:04;;;;;;;7.30;4.07;;;21.70;99.90;;;;;;5027361;28;20227;-63
2021/07/03 07:54:33;;;;;;;4.37;3.80;;;21.70;99.90;;;;;;5028782;28;20672;-62
2021/07/03 07:57:01;;;;;;;5.17;3.10;;;21.80;99.90;;;;;;5045591;28;20288;-63
2021/07/03 07:59:29;;;;;;;3.67;3.23;;;21.60;99.90;;;;;;5047338;28;20246;-62
2021/07/03 08:01:58;;;;;;;3.30;3.00;;;21.60;99.90;;;;;;5029689;28;20236;-62
2021/07/03 08:04:27;;;;;;;3.63;2.93;;;21.60;99.90;;;;;;5008410;28;20252;-62
2021/07/03 08:06:55;;;;;;;3.67;2.87;;;22.10;99.90;;;;;;5024923;28;20634;-62
2021/07/03 08:09:23;;;;;;;4.73;3.10;;;22.90;99.90;;;;;;5027939;28;20231;-62
2021/07/03 08:11:51;;;;;;;3.53;2.70;;;23.70;99.90;;;;;;5025209;28;20267;-63
2021/07/03 08:14:19;;;;;;;3.63;2.87;;;24.70;99.90;;;;;;5028058;28;20705;-63
2021/07/03 08:16:47;;;;;;;3.27;2.93;;;25.20;99.90;;;;;;5028257;28;20236;-62
2021/07/03 08:19:19;;;;;;;5.10;3.03;;;25.60;99.90;;;;;;5027906;28;20250;-63
2021/07/03 08:21:47;;;;;;;3.40;2.70;;;25.40;99.90;;;;;;5026576;28;20237;-63
2021/07/03 08:24:17;;;;;;;3.13;2.83;;;25.00;99.90;;;;;;5042572;28;20316;-62
2021/07/03 08:26:45;;;;;;;3.30;2.63;;;24.10;99.90;;;;;;5043532;28;20595;-63
2021/07/03 08:29:13;;;;;;;3.53;2.93;;;23.40;99.90;;;;;;5050020;28;20757;-63
2021/07/03 08:31:41;;;;;;;5.37;3.13;;;23.10;99.90;;;;;;5027974;28;20451;-63
2021/07/03 08:34:10;;;;;;;4.83;2.73;;;22.70;99.90;;;;;;5027905;28;20718;-62
2021/07/03 08:36:39;;;;;;;3.73;2.63;;;22.50;99.90;;;;;;5027725;28;20574;-61
2021/07/03 08:39:07;;;;;;;2.70;2.50;;;22.50;99.90;;;;;;5027193;28;20319;-62
2021/07/03 08:41:37;;;;;;;4.47;3.10;;;22.60;99.90;;;;;;5026284;28;20711;-62
2021/07/03 08:44:07;;;;;;;5.10;3.30;;;22.60;99.90;;;;;;5027709;28;20228;-63
2021/07/03 08:46:36;;;;;;;3.53;3.13;;;23.00;99.90;;;;;;5026766;28;20696;-63
2021/07/03 08:49:04;;;;;;;4.23;3.37;;;22.90;99.90;;;;;;5027577;28;20233;-63
2021/07/03 08:51:33;;;;;;;3.23;2.93;;;22.90;99.90;;;;;;5039940;28;20730;-63
2021/07/03 08:54:05;;;;;;;3.70;3.17;;;22.80;99.90;;;;;;5047731;28;20721;-62
2021/07/03 08:56:33;;;;;;;4.47;3.43;;;22.50;99.90;;;;;;5033021;28;20715;-62
2021/07/03 08:59:01;;;;;;;4.80;3.13;;;22.40;99.90;;;;;;5027284;28;20724;-63
2021/07/03 09:01:30;;;;;;;3.37;3.07;;;22.40;99.90;;;;;;5026179;28;20566;-62
2021/07/03 09:03:58;;;;;;;3.70;3.40;;;22.30;99.90;;;;;;5027173;28;20225;-63
2021/07/03 09:06:33;;;;;;;4.97;3.10;;;22.40;99.90;;;;;;5026580;28;20256;-63
2021/07/03 09:09:03;;;;;;;5.27;2.90;;;23.20;99.90;;;;;;5026918;28;20235;-63
2021/07/03 09:11:32;;;;;;;2.90;2.70;;;24.60;99.90;;;;;;5025710;28;20243;-63
2021/07/03 09:14:02;;;;;;;3.20;2.90;;;25.40;99.90;;;;;;5027117;28;20237;-64
2021/07/03 09:16:31;;;;;;;2.83;2.57;;;25.60;99.90;;;;;;5025979;28;20237;-62
2021/07/03 09:19:01;;;;;;;2.83;2.43;;;25.90;99.90;;;;;;5026719;28;20269;-63
2021/07/03 09:21:29;;;;;;;3.20;2.87;;;25.70;99.90;;;;;;5019698;28;20236;-63
2021/07/03 09:23:59;;;;;;;2.93;2.60;;;25.80;99.90;;;;;;5027217;28;20764;-62
2021/07/03 09:26:28;;;;;;;2.80;2.47;;;26.10;99.90;;;;;;5026962;28;20241;-63
2021/07/03 09:28:56;;;;;;;4.13;2.60;;;26.40;99.90;;;;;;5026298;28;20304;-64
2021/07/03 09:31:25;;;;;;;3.33;2.80;;;26.70;99.90;;;;;;5026281;28;20637;-62
2021/07/03 09:33:54;;;;;;;4.77;2.80;;;27.00;99.90;;;;;;5027279;28;20242;-62
2021/07/03 09:36:26;;;;;;;3.00;2.50;;;26.50;99.90;;;;;;5026669;28;20239;-63
2021/07/03 09:38:56;;;;;;;2.97;2.37;;;26.00;99.90;;;;;;5024936;28;20241;-62
2021/07/03 09:41:28;;;;;;;3.70;2.80;;;26.50;99.90;;;;;;5023167;28;20231;-63
2021/07/03 09:44:02;;;;;;;3.07;2.60;;;27.10;99.90;;;;;;5022291;28;20235;-62
2021/07/03 09:46:32;;;;;;;4.13;2.60;;;26.90;99.90;;;;;;5038513;28;20756;-62
2021/07/03 09:49:02;;;;;;;2.63;2.40;;;26.50;99.90;;;;;;5045111;28;20270;-62
2021/07/03 09:51:33;;;;;;;3.23;2.50;;;26.20;99.90;;;;;;5030931;28;20301;-62
2021/07/03 09:54:01;;;;;;;5.03;2.90;;;26.50;99.90;;;;;;5025115;28;20261;-62
2021/07/03 09:56:30;;;;;;;2.77;2.50;;;27.10;99.90;;;;;;5023838;28;20596;-61
2021/07/03 09:58:59;;;;;;;3.03;2.53;;;26.90;99.90;;;;;;5025296;28;20230;-63
2021/07/03 10:01:27;;;;;;;3.30;3.00;;;26.50;99.90;;;;;;5026015;28;20378;-63
2021/07/03 10:04:00;;;;;;;3.33;2.70;;;26.00;99.90;;;;;;5027089;28;20301;-63
2021/07/03 10:06:33;;;;;;;3.70;3.00;;;25.90;99.90;;;;;;5026098;28;20572;-62
2021/07/03 10:09:04;;;;;;;3.67;2.93;;;26.00;99.90;;;;;;5027130;28;20263;-62
2021/07/03 10:11:40;;;;;;;3.00;2.50;;;26.70;99.90;;;;;;5026143;28;20235;-62
2021/07/03 10:14:10;;;;;;;3.50;2.83;;;27.00;99.90;;;;;;5026906;28;20285;-62
2021/07/03 10:16:38;;;;;;;3.00;2.70;;;27.20;99.90;;;;;;5026853;28;20619;-63
2021/07/03 10:19:10;;;;;;;2.97;2.50;;;27.30;99.90;;;;;;5026933;28;20264;-62
2021/07/03 10:21:38;;;;;;;3.50;2.57;;;27.90;99.90;;;;;;5025994;28;20234;-63
2021/07/03 10:24:16;;;;;;;2.53;2.33;;;27.90;99.90;;;;;;5026923;28;20588;-62
2021/07/03 10:26:45;;;;;;;2.93;2.40;;;28.40;99.90;;;;;;5030463;28;20269;-62
2021/07/03 10:29:21;;;;;;;3.73;2.50;;;28.80;99.90;;;;;;5030523;28;20239;-62
2021/07/03 10:31:50;;;;;;;2.73;2.53;;;28.50;99.90;;;;;;5029736;28;20265;-62
2021/07/03 10:34:28;;;;;;;3.10;2.63;;;28.30;99.90;;;;;;5030553;28;20247;-62
2021/07/03 10:37:10;;;;;;;2.50;2.30;;;28.10;99.90;;;;;;5029627;28;20780;-63
2021/07/03 10:39:38;;;;;;;2.73;2.50;;;28.00;99.90;;;;;;5029825;28;20233;-63
2021/07/03 10:42:06;;;;;;;3.37;2.50;;;28.50;99.90;;;;;;5029193;28;20240;-63
2021/07/03 10:44:40;;;;;;;2.90;2.60;;;28.50;99.90;;;;;;5029777;28;20235;-63
2021/07/03 10:47:13;;;;;;;2.73;2.13;;;28.40;99.90;;;;;;5029761;28;20243;-62
2021/07/03 10:49:41;;;;;;;2.83;2.13;;;29.00;99.90;;;;;;5029486;28;20255;-62
2021/07/03 10:52:12;;;;;;;3.13;2.23;;;30.00;99.90;;;;;;5047889;28;20334;-61
2021/07/03 10:54:41;;;;;;;3.30;2.37;;;30.20;99.90;;;;;;5050041;28;20243;-63
2021/07/03 10:57:10;;;;;;;2.70;2.50;;;29.60;99.90;;;;;;5030393;28;20236;-62
2021/07/03 10:59:42;;;;;;;2.57;2.37;;;29.40;99.90;;;;;;5029343;28;20310;-63
2021/07/03 11:02:12;;;;;;;3.50;2.43;;;29.30;99.90;;;;;;5028339;28;20231;-62
2021/07/03 11:04:45;;;;;;;2.83;2.17;;;29.50;99.90;;;;;;5035367;28;20240;-62
2021/07/03 11:07:15;;;;;;;2.80;2.60;;;29.60;99.90;;;;;;5029332;28;20283;-61
2021/07/03 11:09:43;;;;;;;2.17;2.07;;;29.50;99.90;;;;;;5029563;28;20241;-63
2021/07/03 11:12:14;;;;;;;2.50;2.30;;;29.60;99.90;;;;;;5028664;28;20664;-62
2021/07/03 11:14:50;;;;;;;2.83;2.37;;;29.60;99.90;;;;;;5029691;28;20240;-62
2021/07/03 11:17:19;;;;;;;2.83;2.57;;;29.10;99.90;;;;;;5028203;28;20251;-63
2021/07/03 11:19:52;;;;;;;3.63;2.53;;;28.50;99.90;;;;;;5029362;28;20267;-63
2021/07/03 11:22:22;;;;;;;2.23;2.03;;;28.60;99.90;;;;;;5028780;28;20229;-62
2021/07/03 11:24:52;;;;;;;2.83;2.27;;;28.30;99.90;;;;;;5029538;28;20242;-62
2021/07/03 11:27:29;;;;;;;3.80;2.60;;;28.30;99.90;;;;;;5028422;28;20244;-61
2021/07/03 11:29:59;;;;;;;2.33;2.13;;;29.00;99.90;;;;;;5028989;28;20232;-61
2021/07/03 11:32:28;;;;;;;2.97;2.27;;;29.30;99.90;;;;;;5020570;28;20624;-61
2021/07/03 11:34:57;;;;;;;2.87;2.20;;;29.50;99.90;;;;;;5029450;28;20731;-62
2021/07/03 11:37:30;;;;;;;2.67;2.30;;;29.40;99.90;;;;;;5028006;28;20232;-62
2021/07/03 11:40:00;;;;;;;3.23;2.10;;;29.80;99.90;;;;;;5028756;28;20252;-63
2021/07/03 11:42:30;;;;;;;2.93;2.10;;;29.20;99.90;;;;;;5020601;28;20240;-62
2021/07/03 11:45:00;;;;;;;3.27;2.30;;;28.60;99.90;;;;;;5029898;28;20240;-62
2021/07/03 11:47:37;;;;;;;2.70;2.50;;;28.00;99.90;;;;;;5036653;28;20236;-62
2021/07/03 11:50:08;;;;;;;3.60;2.30;;;27.60;99.90;;;;;;5027733;28;20256;-62
2021/07/03 11:52:47;;;;;;;4.33;2.43;;;27.00;99.90;;;;;;5042950;28;20238;-62
2021/07/03 11:55:17;;;;;;;2.93;2.20;;;26.60;99.90;;;;;;5028953;28;20313;-61
2021/07/03 11:57:48;;;;;;;2.87;2.13;;;27.00;99.90;;;;;;5028790;28;20306;-62
2021/07/03 12:00:21;;;;;;;2.47;2.00;;;27.50;99.90;;;;;;5028354;28;20267;-62
2021/07/03 12:02:50;;;;;;;3.57;2.33;;;27.70;99.90;;;;;;5028247;28;20247;-61
2021/07/03 12:05:23;;;;;;;2.40;2.20;;;27.80;99.90;;;;;;5028297;28;20713;-62
2021/07/03 12:08:03;;;;;;;5.17;2.20;;;28.10;99.90;;;;;;5028454;28;20244;-63
2021/07/03 12:10:34;;;;;;;2.67;2.20;;;28.30;99.90;;;;;;5027439;28;20255;-62
2021/07/03 12:13:02;;;;;;;2.70;2.30;;;28.40;99.90;;;;;;5028100;28;20298;-61
2021/07/03 12:15:32;;;;;;;2.50;2.30;;;27.50;99.90;;;;;;5027806;28;20244;-63
2021/07/03 12:18:01;;;;;;;3.00;2.13;;;26.70;99.90;;;;;;5028113;28;20243;-62
2021/07/03 12:20:30;;;;;;;2.57;2.20;;;26.60;99.90;;;;;;5027534;28;20242;-64
2021/07/03 12:23:02;;;;;;;2.47;2.27;;;26.50;99.90;;;;;;5028359;28;20301;-63
2021/07/03 12:25:32;;;;;;;3.40;1.93;;;26.60;99.90;;;;;;5027530;28;20494;-62
2021/07/03 12:28:02;;;;;;;2.97;2.30;;;27.00;99.90;;;;;;5027760;28;20722;-62
2021/07/03 12:30:34;;;;;;;2.40;2.20;;;26.90;99.90;;;;;;5027129;28;20720;-62
2021/07/03 12:33:12;;;;;;;2.30;2.10;;;27.00;99.90;;;;;;5027771;28;20506;-61
2021/07/03 12:35:42;;;;;;;2.33;2.03;;;26.90;99.90;;;;;;5027903;28;20271;-61
2021/07/03 12:38:12;;;;;;;3.17;2.20;;;26.70;99.90;;;;;;5027416;28;20319;-62
2021/07/03 12:40:42;;;;;;;2.43;2.20;;;26.80;99.90;;;;;;5026905;28;20242;-62
2021/07/03 12:43:12;;;;;;;2.63;2.20;;;26.90;99.90;;;;;;5027622;28;20240;-62
2021/07/03 12:45:42;;;;;;;2.47;2.10;;;26.90;99.90;;;;;;5026258;28;20267;-61
2021/07/03 12:48:13;;;;;;;2.63;2.07;;;26.90;99.90;;;;;;5027024;28;20305;-63
2021/07/03 12:50:44;;;;;;;2.90;2.20;;;26.80;99.90;;;;;;5027169;28;20236;-63
2021/07/03 12:53:14;;;;;;;2.83;2.20;;;26.90;99.90;;;;;;5027028;28;20552;-63
2021/07/03 12:55:44;;;;;;;2.77;2.17;;;26.30;99.90;;;;;;5027702;28;20257;-62